Salisbury, Connecticut
Current Conditions -  °F | °C
As of 7:54 AM on Friday 24 Oct 2014 (Local Time) from KPSF Reporting Station
Overcast Overcast  
Wind Chill: 36°   Ceiling: 4400
Heat Index: 42°   Visibility: 9mi
Dew Point: 40°   Wind: 10mph
Humidity: 92%   Direction: 330°NNW
Pressure: 29.78"   Gusts: NA
Location:  41.98°N, 73.42°W
Report Text: KPSF 241154Z AUTO 33009KT 9SM FEW012 BKN044 OVC055 06/04 A2978 RMK AO2 RAE13 SLP083 P0000 60013 70052 T00560044 10061 20056 51003
Loading
Personal Weather Stations






























Interactive Weather Map
Tropical Storm Tracking
New forecast layout! Learn more

10-Day Weather Forecast

Advertisements
Track Severe Weather on mobile